Time;durP1;ratioP1;P1;durP2;ratioP2;P2;SDS_P1;SDS_P2;PMS_P1;PMS_P2;Temp;Humidity;BMP_temperature;BMP_pressure;BME280_temperature;BME280_humidity;BME280_pressure;Samples;Min_cycle;Max_cycle;Signal;HPM_P1;HPM_P2
2021/12/29 00:00:21;;;;;;;57.08;35.15;;;;;;;;;;5030657;28;20476;-67
2021/12/29 00:02:48;;;;;;;56.20;34.45;;;;;;;;;;5033132;28;20030;-68
2021/12/29 00:05:14;;;;;;;55.20;35.08;;;;;;;;;;5034736;28;20392;-69
2021/12/29 00:07:40;;;;;;;56.20;35.97;;;;;;;;;;5033297;28;20041;-68
2021/12/29 00:10:07;;;;;;;58.83;35.83;;;;;;;;;;5034676;28;20434;-68
2021/12/29 00:12:39;;;;;;;64.93;39.28;;;;;;;;;;5034647;28;20103;-69
2021/12/29 00:15:07;;;;;;;70.88;38.58;;;;;;;;;;5034499;28;20029;-68
2021/12/29 00:17:33;;;;;;;70.15;42.13;;;;;;;;;;5033415;28;20405;-69
2021/12/29 00:19:58;;;;;;;66.10;40.05;;;;;;;;;;5034308;28;20029;-69
2021/12/29 00:22:24;;;;;;;60.88;37.15;;;;;;;;;;5034807;28;20524;-72
2021/12/29 00:24:50;;;;;;;60.80;36.45;;;;;;;;;;5033593;28;20037;-70
2021/12/29 00:27:16;;;;;;;66.40;38.78;;;;;;;;;;5033777;28;20148;-70
2021/12/29 00:29:41;;;;;;;62.38;38.22;;;;;;;;;;5033888;28;20109;-69
2021/12/29 00:32:27;;;;;;;70.22;38.20;;;;;;;;;;5034889;28;20403;-68
2021/12/29 00:35:19;;;;;;;64.13;39.40;;;;;;;;;;5025906;28;20049;-69
2021/12/29 00:38:05;;;;;;;56.80;34.70;;;;;;;;;;5035170;28;20125;-68
2021/12/29 00:40:49;;;;;;;62.20;34.33;;;;;;;;;;5035089;28;20056;-68
2021/12/29 00:43:34;;;;;;;50.78;31.83;;;;;;;;;;5035011;28;20048;-67
2021/12/29 00:46:23;;;;;;;51.10;31.85;;;;;;;;;;5031453;28;20061;-68
2021/12/29 00:48:49;;;;;;;50.05;30.05;;;;;;;;;;5034633;28;20156;-67
2021/12/29 00:51:15;;;;;;;52.88;32.25;;;;;;;;;;5034486;28;20026;-67
2021/12/29 00:53:41;;;;;;;54.95;33.63;;;;;;;;;;5034463;28;20038;-67
2021/12/29 00:56:07;;;;;;;56.22;34.45;;;;;;;;;;5034286;28;20155;-67
2021/12/29 00:58:34;;;;;;;57.05;35.65;;;;;;;;;;5034422;28;20385;-66
2021/12/29 01:01:00;;;;;;;54.60;35.50;;;;;;;;;;5034294;28;20039;-67
2021/12/29 01:03:26;;;;;;;58.67;35.85;;;;;;;;;;5033990;28;20041;-66
2021/12/29 01:05:53;;;;;;;64.60;37.42;;;;;;;;;;5034171;28;20484;-66
2021/12/29 01:08:19;;;;;;;60.80;37.33;;;;;;;;;;5034097;28;20496;-67
2021/12/29 01:10:45;;;;;;;58.45;36.30;;;;;;;;;;5034049;28;20067;-66
2021/12/29 01:13:14;;;;;;;51.50;34.20;;;;;;;;;;5032978;28;20199;-67
2021/12/29 01:16:36;;;;;;;53.25;33.85;;;;;;;;;;5034049;28;20018;-67
2021/12/29 01:18:38;;;;;;;49.40;33.10;;;;;;;;;;5033751;28;20119;-66
2021/12/29 01:21:05;;;;;;;48.83;31.60;;;;;;;;;;5034139;28;20057;-66
2021/12/29 01:23:31;;;;;;;49.38;32.42;;;;;;;;;;5033255;28;20115;-66
2021/12/29 01:25:57;;;;;;;49.33;31.48;;;;;;;;;;5041499;28;20178;-66
2021/12/29 01:28:23;;;;;;;51.80;31.48;;;;;;;;;;5053558;28;20064;-66
2021/12/29 01:30:50;;;;;;;45.13;29.40;;;;;;;;;;5041807;28;20049;-66
2021/12/29 01:33:16;;;;;;;49.20;30.52;;;;;;;;;;5033606;28;20033;-66
2021/12/29 01:35:42;;;;;;;35.88;25.10;;;;;;;;;;5033754;28;20029;-67
2021/12/29 01:38:09;;;;;;;40.65;27.50;;;;;;;;;;5035779;28;20055;-67
2021/12/29 01:40:36;;;;;;;41.35;28.55;;;;;;;;;;5033852;28;20108;-67
2021/12/29 01:43:05;;;;;;;45.58;29.20;;;;;;;;;;5033769;28;20048;-67
2021/12/29 01:45:32;;;;;;;50.08;31.00;;;;;;;;;;5033656;28;20021;-67
2021/12/29 01:47:59;;;;;;;46.15;31.63;;;;;;;;;;5033355;28;20557;-69
2021/12/29 01:50:26;;;;;;;51.50;32.80;;;;;;;;;;5029112;28;20042;-68
2021/12/29 01:52:57;;;;;;;51.95;32.95;;;;;;;;;;5033302;28;20033;-66
2021/12/29 01:55:27;;;;;;;43.42;28.08;;;;;;;;;;5040886;28;20511;-65
2021/12/29 01:57:53;;;;;;;42.35;28.88;;;;;;;;;;5053253;28;20071;-68
2021/12/29 02:00:23;;;;;;;50.75;33.03;;;;;;;;;;5052957;28;20032;-68
2021/12/29 02:02:52;;;;;;;49.83;33.45;;;;;;;;;;5052889;28;20120;-69
2021/12/29 02:05:17;;;;;;;54.03;34.80;;;;;;;;;;5046336;28;20111;-67
2021/12/29 02:07:44;;;;;;;61.67;37.05;;;;;;;;;;5051126;28;20515;-66
2021/12/29 02:10:12;;;;;;;59.67;38.42;;;;;;;;;;5052955;28;20024;-68
2021/12/29 02:12:38;;;;;;;75.85;43.42;;;;;;;;;;5038214;28;20072;-67
2021/12/29 02:15:05;;;;;;;76.90;43.03;;;;;;;;;;5050250;28;20456;-67
2021/12/29 02:17:31;;;;;;;72.95;42.22;;;;;;;;;;5052566;28;20033;-67
2021/12/29 02:19:58;;;;;;;74.70;40.60;;;;;;;;;;5052464;28;20443;-67
2021/12/29 02:22:41;;;;;;;65.20;37.38;;;;;;;;;;5031957;28;20080;-67
2021/12/29 02:27:44;;;;;;;84.72;44.60;;;;;;;;;;5012930;28;20073;-66
2021/12/29 02:30:11;;;;;;;82.82;44.90;;;;;;;;;;5013122;28;20445;-66
2021/12/29 02:32:37;;;;;;;71.85;39.22;;;;;;;;;;5021708;28;20029;-66
2021/12/29 02:35:04;;;;;;;67.60;38.92;;;;;;;;;;5043926;28;20045;-68
2021/12/29 02:37:30;;;;;;;77.75;42.30;;;;;;;;;;5037076;28;20055;-68
2021/12/29 02:39:56;;;;;;;76.70;41.72;;;;;;;;;;5031947;28;20306;-66
2021/12/29 02:42:26;;;;;;;66.68;37.47;;;;;;;;;;5032431;28;20038;-67
2021/12/29 02:44:53;;;;;;;59.17;35.92;;;;;;;;;;5032274;28;20040;-67
2021/12/29 02:47:19;;;;;;;66.07;36.67;;;;;;;;;;5032458;28;20029;-65
2021/12/29 02:49:45;;;;;;;57.92;36.35;;;;;;;;;;5032241;28;20076;-67
2021/12/29 02:52:14;;;;;;;66.22;39.15;;;;;;;;;;5030847;28;20412;-67
2021/12/29 02:54:40;;;;;;;71.60;38.70;;;;;;;;;;5029914;28;20075;-67
2021/12/29 02:57:06;;;;;;;68.00;39.00;;;;;;;;;;5031945;28;20017;-67
2021/12/29 02:59:33;;;;;;;64.82;38.58;;;;;;;;;;5032255;28;20024;-67
2021/12/29 03:01:58;;;;;;;69.15;38.50;;;;;;;;;;5035658;28;20369;-69
2021/12/29 03:04:25;;;;;;;62.63;35.70;;;;;;;;;;5051827;28;20048;-66
2021/12/29 03:06:50;;;;;;;57.50;34.00;;;;;;;;;;5051857;28;20028;-69
2021/12/29 03:09:17;;;;;;;55.70;33.85;;;;;;;;;;5052054;28;20499;-67
2021/12/29 03:11:47;;;;;;;55.35;33.63;;;;;;;;;;5051722;28;20479;-67
2021/12/29 03:14:14;;;;;;;59.05;37.47;;;;;;;;;;5051866;28;20056;-67
2021/12/29 03:16:40;;;;;;;57.25;34.80;;;;;;;;;;5051858;28;20020;-68
2021/12/29 03:19:07;;;;;;;50.08;32.05;;;;;;;;;;5047146;28;20045;-67
2021/12/29 03:21:34;;;;;;;58.28;34.88;;;;;;;;;;5051786;28;20025;-67
2021/12/29 03:24:01;;;;;;;60.10;36.17;;;;;;;;;;5051555;28;20045;-67
2021/12/29 03:26:27;;;;;;;58.42;34.92;;;;;;;;;;5051568;28;20029;-67
2021/12/29 03:28:53;;;;;;;69.05;36.00;;;;;;;;;;5050129;28;20122;-67
2021/12/29 03:31:21;;;;;;;80.70;38.33;;;;;;;;;;5051683;28;20029;-67
2021/12/29 03:33:48;;;;;;;82.93;39.63;;;;;;;;;;5034898;28;20056;-67
2021/12/29 03:36:15;;;;;;;110.72;36.42;;;;;;;;;;5034813;28;20052;-67
2021/12/29 03:38:42;;;;;;;106.05;36.53;;;;;;;;;;5033792;28;20091;-66
2021/12/29 03:41:14;;;;;;;69.15;37.67;;;;;;;;;;5037917;28;20234;-66
2021/12/29 03:43:42;;;;;;;86.47;39.28;;;;;;;;;;5037855;28;20037;-67
2021/12/29 03:46:08;;;;;;;85.95;40.17;;;;;;;;;;5038048;28;20033;-68
2021/12/29 03:48:36;;;;;;;83.95;40.35;;;;;;;;;;5038755;28;20455;-66
2021/12/29 03:51:03;;;;;;;133.23;41.88;;;;;;;;;;5039043;28;20025;-66
2021/12/29 03:53:29;;;;;;;85.90;39.95;;;;;;;;;;5038094;28;20040;-67
2021/12/29 03:55:56;;;;;;;67.32;38.55;;;;;;;;;;5038212;28;20032;-67
2021/12/29 03:58:25;;;;;;;70.80;40.55;;;;;;;;;;5037643;28;20388;-67
2021/12/29 04:00:54;;;;;;;70.47;38.03;;;;;;;;;;5038057;28;20064;-66
2021/12/29 04:03:19;;;;;;;73.72;38.58;;;;;;;;;;5038081;28;20159;-67
2021/12/29 04:05:46;;;;;;;83.55;39.20;;;;;;;;;;5037741;28;20104;-69
2021/12/29 04:08:12;;;;;;;71.30;37.13;;;;;;;;;;5037915;28;20064;-68
2021/12/29 04:10:37;;;;;;;58.25;36.63;;;;;;;;;;5038274;28;20484;-66
2021/12/29 04:13:03;;;;;;;60.28;33.67;;;;;;;;;;5038350;28;20025;-67
2021/12/29 04:15:30;;;;;;;62.72;34.97;;;;;;;;;;5037472;28;20014;-66
2021/12/29 04:17:58;;;;;;;147.43;39.28;;;;;;;;;;5037443;28;20029;-66
2021/12/29 04:23:18;;;;;;;132.25;42.22;;;;;;;;;;5037460;28;20401;-68
2021/12/29 04:25:48;;;;;;;66.47;35.75;;;;;;;;;;5037385;28;20029;-68
2021/12/29 04:28:20;;;;;;;101.00;39.78;;;;;;;;;;5037250;28;20069;-67
2021/12/29 04:30:51;;;;;;;91.78;40.92;;;;;;;;;;5037361;28;20399;-67
2021/12/29 04:33:17;;;;;;;83.38;40.83;;;;;;;;;;5037201;28;20061;-66
2021/12/29 04:35:44;;;;;;;97.80;46.53;;;;;;;;;;5037244;28;20087;-67
2021/12/29 04:38:10;;;;;;;99.97;46.55;;;;;;;;;;5037281;28;20025;-68
2021/12/29 04:40:37;;;;;;;119.90;44.63;;;;;;;;;;5037543;28;20032;-67
2021/12/29 04:43:03;;;;;;;127.47;46.97;;;;;;;;;;5037991;28;20122;-67
2021/12/29 04:45:29;;;;;;;104.28;44.40;;;;;;;;;;5037466;28;20056;-66
2021/12/29 04:47:54;;;;;;;97.72;43.28;;;;;;;;;;5034276;28;20037;-67
2021/12/29 04:50:27;;;;;;;84.38;41.60;;;;;;;;;;5034264;28;20072;-67
2021/12/29 04:52:56;;;;;;;75.03;39.10;;;;;;;;;;5034518;28;20116;-67
2021/12/29 04:55:22;;;;;;;88.60;41.60;;;;;;;;;;5034338;28;20029;-67
2021/12/29 04:57:48;;;;;;;159.30;46.85;;;;;;;;;;5034099;28;20033;-67
2021/12/29 05:00:15;;;;;;;127.88;46.30;;;;;;;;;;5033964;28;20026;-67
2021/12/29 05:02:42;;;;;;;129.02;51.33;;;;;;;;;;5034259;28;20171;-68
2021/12/29 05:05:18;;;;;;;124.80;51.17;;;;;;;;;;5033962;28;20028;-67
2021/12/29 05:10:30;;;;;;;115.93;50.20;;;;;;;;;;5033322;28;20041;-67
2021/12/29 05:12:55;;;;;;;148.68;48.45;;;;;;;;;;5032231;28;20025;-66
2021/12/29 05:15:21;;;;;;;127.90;44.78;;;;;;;;;;5032815;28;20044;-65
2021/12/29 05:17:47;;;;;;;112.18;42.78;;;;;;;;;;5033582;28;20022;-70
2021/12/29 05:20:13;;;;;;;70.45;37.83;;;;;;;;;;5033398;28;20476;-72
2021/12/29 05:22:38;;;;;;;76.45;39.47;;;;;;;;;;5033716;28;20108;-71
2021/12/29 05:25:05;;;;;;;93.43;40.00;;;;;;;;;;5033427;28;20040;-70
2021/12/29 05:27:30;;;;;;;92.45;41.13;;;;;;;;;;5029790;28;20125;-71
2021/12/29 05:29:57;;;;;;;81.72;41.47;;;;;;;;;;5033258;28;20485;-70
2021/12/29 05:32:23;;;;;;;83.32;42.33;;;;;;;;;;5033370;28;20132;-71
2021/12/29 05:34:48;;;;;;;81.45;40.90;;;;;;;;;;5032842;28;20103;-72
2021/12/29 05:37:14;;;;;;;81.18;40.50;;;;;;;;;;5032763;28;20472;-72
2021/12/29 05:39:40;;;;;;;76.78;40.22;;;;;;;;;;5030978;28;20041;-72
2021/12/29 05:42:06;;;;;;;73.97;39.60;;;;;;;;;;5033000;28;20088;-72
2021/12/29 05:44:32;;;;;;;75.68;39.15;;;;;;;;;;5041304;28;20039;-74
2021/12/29 05:46:57;;;;;;;69.05;38.92;;;;;;;;;;5041046;28;20037;-71
2021/12/29 05:49:23;;;;;;;59.10;34.67;;;;;;;;;;5052332;28;20064;-70
2021/12/29 05:51:49;;;;;;;65.45;36.80;;;;;;;;;;5054384;28;20021;-70
2021/12/29 05:54:15;;;;;;;62.13;36.20;;;;;;;;;;5053921;28;20037;-70
2021/12/29 05:56:40;;;;;;;60.55;35.03;;;;;;;;;;5050990;28;20463;-70
2021/12/29 05:59:06;;;;;;;67.30;36.50;;;;;;;;;;5067887;28;20033;-70
2021/12/29 06:01:33;;;;;;;60.33;35.13;;;;;;;;;;5067236;28;20025;-71
2021/12/29 06:03:59;;;;;;;65.45;35.90;;;;;;;;;;5051270;28;20032;-70
2021/12/29 06:06:24;;;;;;;70.45;40.55;;;;;;;;;;5053078;28;20023;-74
2021/12/29 06:08:50;;;;;;;70.30;37.78;;;;;;;;;;5053438;28;20033;-70
2021/12/29 06:11:16;;;;;;;67.20;36.10;;;;;;;;;;5053126;28;20073;-69
2021/12/29 06:13:41;;;;;;;74.78;40.20;;;;;;;;;;5053318;28;20041;-70
2021/12/29 06:16:07;;;;;;;80.80;40.38;;;;;;;;;;5053078;28;20021;-71
2021/12/29 06:18:33;;;;;;;71.88;38.47;;;;;;;;;;5053254;28;20490;-71
2021/12/29 06:20:59;;;;;;;77.15;39.92;;;;;;;;;;5068875;28;20037;-70
2021/12/29 06:23:25;;;;;;;73.72;39.25;;;;;;;;;;5053541;28;20087;-69
2021/12/29 06:25:50;;;;;;;74.57;37.90;;;;;;;;;;5052912;28;20013;-71
2021/12/29 06:28:16;;;;;;;73.78;39.97;;;;;;;;;;5052875;28;20045;-70
2021/12/29 06:30:42;;;;;;;70.78;37.25;;;;;;;;;;5053201;28;20033;-70
2021/12/29 06:33:08;;;;;;;61.88;34.65;;;;;;;;;;5052687;28;20059;-71
2021/12/29 06:35:34;;;;;;;61.83;35.72;;;;;;;;;;5053059;28;20456;-70
2021/12/29 06:38:00;;;;;;;67.22;35.42;;;;;;;;;;5052966;28;20064;-71
2021/12/29 06:40:26;;;;;;;63.92;34.75;;;;;;;;;;5052341;28;20060;-71
2021/12/29 06:42:51;;;;;;;70.22;38.38;;;;;;;;;;5052774;28;20033;-69
2021/12/29 06:45:17;;;;;;;69.50;37.80;;;;;;;;;;5053837;28;20391;-70
2021/12/29 06:47:43;;;;;;;71.03;37.42;;;;;;;;;;5052896;28;20025;-71
2021/12/29 06:50:09;;;;;;;68.75;36.55;;;;;;;;;;5052442;28;20490;-72
2021/12/29 06:52:35;;;;;;;64.57;36.78;;;;;;;;;;5052370;28;20037;-73
2021/12/29 06:55:02;;;;;;;76.88;41.72;;;;;;;;;;5052265;28;20391;-72
2021/12/29 06:57:28;;;;;;;85.35;42.90;;;;;;;;;;5052541;28;20175;-71
2021/12/29 06:59:54;;;;;;;77.93;40.70;;;;;;;;;;5052102;28;20480;-76
2021/12/29 07:02:20;;;;;;;76.60;40.65;;;;;;;;;;5051926;28;20028;-72
2021/12/29 07:04:45;;;;;;;69.00;37.28;;;;;;;;;;5052053;28;20021;-72
2021/12/29 07:07:11;;;;;;;83.13;41.65;;;;;;;;;;5051743;28;20040;-72
2021/12/29 07:09:37;;;;;;;79.30;40.08;;;;;;;;;;5051857;28;20021;-73
2021/12/29 07:12:04;;;;;;;71.68;36.58;;;;;;;;;;5052462;28;20041;-75
2021/12/29 07:14:30;;;;;;;71.15;38.88;;;;;;;;;;5052258;28;20025;-72
2021/12/29 07:16:56;;;;;;;82.28;41.47;;;;;;;;;;5052167;28;20055;-75
2021/12/29 07:19:21;;;;;;;72.78;38.13;;;;;;;;;;5052170;28;20037;-74
2021/12/29 07:21:49;;;;;;;72.60;39.10;;;;;;;;;;5052080;28;20039;-71
2021/12/29 07:24:16;;;;;;;80.53;40.55;;;;;;;;;;5052004;28;20029;-70
2021/12/29 07:26:43;;;;;;;74.55;37.95;;;;;;;;;;5052302;28;20127;-72
2021/12/29 07:29:09;;;;;;;83.43;41.72;;;;;;;;;;5051965;28;20440;-70
2021/12/29 07:31:35;;;;;;;79.63;40.63;;;;;;;;;;5051789;28;20041;-71
2021/12/29 07:34:01;;;;;;;83.00;40.92;;;;;;;;;;5051805;28;20037;-75
2021/12/29 07:36:26;;;;;;;78.25;39.60;;;;;;;;;;5051740;28;20044;-71
2021/12/29 07:38:52;;;;;;;71.90;37.80;;;;;;;;;;5048176;28;20071;-72
2021/12/29 07:41:18;;;;;;;75.07;36.05;;;;;;;;;;5043071;28;20098;-72
2021/12/29 07:43:44;;;;;;;63.58;33.80;;;;;;;;;;5051324;28;20025;-69
2021/12/29 07:46:12;;;;;;;58.35;32.20;;;;;;;;;;5050003;28;20041;-72
2021/12/29 07:48:38;;;;;;;51.28;30.92;;;;;;;;;;5051533;28;20032;-70
2021/12/29 07:51:06;;;;;;;61.83;32.97;;;;;;;;;;5051461;28;20033;-70
2021/12/29 07:53:34;;;;;;;69.13;34.65;;;;;;;;;;5051228;28;20340;-72
2021/12/29 07:56:00;;;;;;;68.95;35.90;;;;;;;;;;5051522;28;20044;-72
2021/12/29 07:58:26;;;;;;;57.58;29.83;;;;;;;;;;5051814;28;20025;-71
2021/12/29 08:00:52;;;;;;;58.95;31.48;;;;;;;;;;5051715;28;20380;-71
2021/12/29 08:03:18;;;;;;;65.07;34.38;;;;;;;;;;5051711;28;20079;-70
2021/12/29 08:05:45;;;;;;;64.97;34.10;;;;;;;;;;5051602;28;20079;-70
2021/12/29 08:08:11;;;;;;;69.50;35.03;;;;;;;;;;5051480;28;20145;-70
2021/12/29 08:10:38;;;;;;;56.83;31.08;;;;;;;;;;5050958;28;20423;-71
2021/12/29 08:13:05;;;;;;;53.85;29.85;;;;;;;;;;5051352;28;20531;-73
2021/12/29 08:15:34;;;;;;;59.90;33.38;;;;;;;;;;5051618;28;20094;-71
2021/12/29 08:18:02;;;;;;;67.07;34.97;;;;;;;;;;5051319;28;20482;-70
2021/12/29 08:20:29;;;;;;;53.95;29.80;;;;;;;;;;5051394;28;20344;-71
2021/12/29 08:22:55;;;;;;;45.00;24.10;;;;;;;;;;5053055;28;20040;-69
2021/12/29 08:25:21;;;;;;;40.38;22.40;;;;;;;;;;5055006;28;20033;-74
2021/12/29 08:27:47;;;;;;;42.72;22.70;;;;;;;;;;5054835;28;20060;-72
2021/12/29 08:30:14;;;;;;;35.08;20.73;;;;;;;;;;5053914;28;20041;-72
2021/12/29 08:32:40;;;;;;;41.53;24.92;;;;;;;;;;5070118;28;20051;-70
2021/12/29 08:35:06;;;;;;;42.45;23.48;;;;;;;;;;5054822;28;20452;-70
2021/12/29 08:37:31;;;;;;;39.80;22.63;;;;;;;;;;5055333;28;20135;-72
2021/12/29 08:39:57;;;;;;;39.15;23.60;;;;;;;;;;5054824;28;20043;-72
2021/12/29 08:42:23;;;;;;;38.05;23.60;;;;;;;;;;5055182;28;20029;-73
2021/12/29 08:44:50;;;;;;;48.03;27.30;;;;;;;;;;5054849;28;20059;-72
2021/12/29 08:47:16;;;;;;;46.53;27.10;;;;;;;;;;5054370;28;20029;-73
2021/12/29 08:49:42;;;;;;;46.45;25.38;;;;;;;;;;5055185;28;20048;-72
2021/12/29 08:52:08;;;;;;;48.28;27.27;;;;;;;;;;5054643;28;20028;-76
2021/12/29 08:54:34;;;;;;;44.65;25.08;;;;;;;;;;5054338;28;20498;-76
2021/12/29 08:57:01;;;;;;;48.78;25.67;;;;;;;;;;5054322;28;20083;-71
2021/12/29 08:59:28;;;;;;;47.65;27.33;;;;;;;;;;5054891;28;20033;-72
2021/12/29 09:01:53;;;;;;;48.45;27.70;;;;;;;;;;5054067;28;20074;-71
2021/12/29 09:04:20;;;;;;;47.15;27.15;;;;;;;;;;5054383;28;20045;-74
2021/12/29 09:06:45;;;;;;;52.13;28.77;;;;;;;;;;5054281;28;20032;-71
2021/12/29 09:09:12;;;;;;;51.85;28.80;;;;;;;;;;5053584;28;20029;-71
2021/12/29 09:11:39;;;;;;;49.88;28.45;;;;;;;;;;5054187;28;20017;-71
2021/12/29 09:14:06;;;;;;;67.03;29.35;;;;;;;;;;5054174;28;20432;-76
2021/12/29 09:16:32;;;;;;;69.15;33.22;;;;;;;;;;5054232;28;20100;-74
2021/12/29 09:18:58;;;;;;;94.13;32.42;;;;;;;;;;5054194;28;20036;-75
2021/12/29 09:21:26;;;;;;;74.15;32.67;;;;;;;;;;5054090;28;20017;-75
2021/12/29 09:23:52;;;;;;;83.88;36.35;;;;;;;;;;5054162;28;20041;-75
2021/12/29 09:26:18;;;;;;;110.03;35.55;;;;;;;;;;5053972;28;20036;-73
2021/12/29 09:28:47;;;;;;;124.60;42.13;;;;;;;;;;5054198;28;20064;-74
2021/12/29 09:31:14;;;;;;;103.80;38.97;;;;;;;;;;5053786;28;20040;-71
2021/12/29 09:33:41;;;;;;;87.60;35.83;;;;;;;;;;5053937;28;20074;-68
2021/12/29 09:36:06;;;;;;;68.32;33.42;;;;;;;;;;5054286;28;20116;-71
2021/12/29 09:38:35;;;;;;;65.63;32.97;;;;;;;;;;5052333;28;20060;-72
2021/12/29 09:41:03;;;;;;;70.05;32.40;;;;;;;;;;5053992;28;20426;-76
2021/12/29 09:43:29;;;;;;;90.75;29.52;;;;;;;;;;5052854;28;20064;-71
2021/12/29 09:45:55;;;;;;;75.03;27.17;;;;;;;;;;5053246;28;20025;-71
2021/12/29 09:48:21;;;;;;;119.93;31.33;;;;;;;;;;5052161;28;20037;-71
2021/12/29 09:50:48;;;;;;;52.17;25.55;;;;;;;;;;5053550;28;20040;-73
2021/12/29 09:53:15;;;;;;;42.13;23.70;;;;;;;;;;5052782;28;20153;-69
2021/12/29 09:55:41;;;;;;;62.92;25.30;;;;;;;;;;5048614;28;20021;-71
2021/12/29 09:58:08;;;;;;;78.78;25.50;;;;;;;;;;5040803;28;20472;-72
2021/12/29 10:00:37;;;;;;;43.33;24.27;;;;;;;;;;5052993;28;20022;-70
2021/12/29 10:03:07;;;;;;;41.95;22.20;;;;;;;;;;5034392;28;20033;-72
2021/12/29 10:05:34;;;;;;;33.97;20.35;;;;;;;;;;5051250;28;20475;-72
2021/12/29 10:08:05;;;;;;;36.70;18.90;;;;;;;;;;5053184;28;20398;-71
2021/12/29 10:10:33;;;;;;;103.60;24.35;;;;;;;;;;5053298;28;20029;-69
2021/12/29 10:12:59;;;;;;;97.95;24.83;;;;;;;;;;5034326;28;20040;-68
2021/12/29 10:15:32;;;;;;;78.80;20.58;;;;;;;;;;5033182;28;20067;-69
2021/12/29 10:18:10;;;;;;;96.28;23.23;;;;;;;;;;5032682;28;20341;-71
2021/12/29 10:21:22;;;;;;;86.78;22.08;;;;;;;;;;5043235;28;20043;-69
2021/12/29 10:23:53;;;;;;;99.70;22.05;;;;;;;;;;5052719;28;20502;-69
2021/12/29 10:26:22;;;;;;;65.28;19.67;;;;;;;;;;5052991;28;20365;-69
2021/12/29 10:28:54;;;;;;;90.85;23.35;;;;;;;;;;5052198;28;20128;-71
2021/12/29 10:31:25;;;;;;;53.38;20.08;;;;;;;;;;5052044;28;20033;-70
2021/12/29 10:33:57;;;;;;;46.33;18.27;;;;;;;;;;5052526;28;20120;-69
2021/12/29 10:36:27;;;;;;;38.13;16.80;;;;;;;;;;5052314;28;20031;-71
2021/12/29 10:39:04;;;;;;;45.97;18.35;;;;;;;;;;5052423;28;20033;-73
2021/12/29 10:41:32;;;;;;;46.55;19.05;;;;;;;;;;5050859;28;20095;-72
2021/12/29 10:44:04;;;;;;;50.25;19.23;;;;;;;;;;5052020;28;20035;-72
2021/12/29 10:46:31;;;;;;;83.63;22.75;;;;;;;;;;5051823;28;20025;-70
2021/12/29 10:48:59;;;;;;;49.90;20.52;;;;;;;;;;5052674;28;20404;-72
2021/12/29 10:51:30;;;;;;;100.45;23.60;;;;;;;;;;5051889;28;20037;-72
2021/12/29 10:54:10;;;;;;;42.35;20.60;;;;;;;;;;5052518;28;20029;-70
2021/12/29 10:56:38;;;;;;;37.67;20.17;;;;;;;;;;5051557;28;20468;-70
2021/12/29 10:59:22;;;;;;;51.97;20.50;;;;;;;;;;5051451;28;20029;-70
2021/12/29 11:01:49;;;;;;;53.90;20.50;;;;;;;;;;5052106;28;20511;-70
2021/12/29 11:04:16;;;;;;;41.90;22.05;;;;;;;;;;5051285;28;20028;-70
2021/12/29 11:06:44;;;;;;;43.63;19.73;;;;;;;;;;5051389;28;20028;-71
2021/12/29 11:09:11;;;;;;;27.35;18.00;;;;;;;;;;5051250;28;20057;-71
2021/12/29 11:11:45;;;;;;;33.38;17.95;;;;;;;;;;5051626;28;20025;-71
2021/12/29 11:14:17;;;;;;;80.03;46.67;;;;;;;;;;5051275;28;20484;-70
2021/12/29 11:16:47;;;;;;;73.88;44.38;;;;;;;;;;5051416;28;20039;-70
2021/12/29 11:19:13;;;;;;;61.20;33.00;;;;;;;;;;5052368;28;20147;-71
2021/12/29 11:21:41;;;;;;;45.45;28.05;;;;;;;;;;5051484;28;20033;-70
2021/12/29 11:24:25;;;;;;;45.83;27.98;;;;;;;;;;5051348;28;20037;-70
2021/12/29 11:26:51;;;;;;;50.78;26.38;;;;;;;;;;5038456;28;20127;-71
2021/12/29 11:29:19;;;;;;;45.60;25.42;;;;;;;;;;5031339;28;20394;-70
2021/12/29 11:32:00;;;;;;;32.55;21.02;;;;;;;;;;5031390;28;20044;-70
2021/12/29 11:34:28;;;;;;;35.60;20.98;;;;;;;;;;5031051;28;20051;-72
2021/12/29 11:37:03;;;;;;;53.47;22.58;;;;;;;;;;5031831;28;20104;-71
2021/12/29 11:39:31;;;;;;;32.58;19.23;;;;;;;;;;5031928;28;20476;-68
2021/12/29 11:41:57;;;;;;;40.85;21.30;;;;;;;;;;5032041;28;20030;-70
2021/12/29 11:44:23;;;;;;;31.88;19.60;;;;;;;;;;5031188;28;20048;-70
2021/12/29 11:46:49;;;;;;;43.38;20.33;;;;;;;;;;5031453;28;20439;-70
2021/12/29 11:49:15;;;;;;;40.55;20.05;;;;;;;;;;5032115;28;20355;-71
2021/12/29 11:51:52;;;;;;;38.63;19.98;;;;;;;;;;5031664;28;20034;-72
2021/12/29 11:54:24;;;;;;;54.17;20.33;;;;;;;;;;5031990;28;20045;-71
2021/12/29 11:56:51;;;;;;;32.35;18.02;;;;;;;;;;5033646;28;20041;-71
2021/12/29 11:59:17;;;;;;;38.75;20.30;;;;;;;;;;5035639;28;20029;-71
2021/12/29 12:01:53;;;;;;;49.50;19.77;;;;;;;;;;5035540;28;20041;-71
2021/12/29 12:04:19;;;;;;;42.47;20.45;;;;;;;;;;5035490;28;20043;-71
2021/12/29 12:06:45;;;;;;;45.72;20.05;;;;;;;;;;5035186;28;20483;-71
2021/12/29 12:09:18;;;;;;;74.75;20.77;;;;;;;;;;5035270;28;20034;-71
2021/12/29 12:11:53;;;;;;;28.02;17.13;;;;;;;;;;5035013;28;20516;-71
2021/12/29 12:14:25;;;;;;;35.72;18.55;;;;;;;;;;5034560;28;20044;-70
2021/12/29 12:17:05;;;;;;;28.48;16.85;;;;;;;;;;5035042;28;20064;-70
2021/12/29 12:19:32;;;;;;;26.35;16.38;;;;;;;;;;5047364;28;20040;-70
2021/12/29 12:22:09;;;;;;;27.33;17.50;;;;;;;;;;5054869;28;20143;-70
2021/12/29 12:24:39;;;;;;;31.67;17.58;;;;;;;;;;5054872;28;20032;-70
2021/12/29 12:27:11;;;;;;;39.05;17.33;;;;;;;;;;5050613;28;20037;-70
2021/12/29 12:29:41;;;;;;;23.20;12.93;;;;;;;;;;5053980;28;20053;-70
2021/12/29 12:32:17;;;;;;;24.88;13.32;;;;;;;;;;5034497;28;20039;-69
2021/12/29 12:35:07;;;;;;;17.25;12.48;;;;;;;;;;5032079;28;20048;-70
2021/12/29 12:37:42;;;;;;;23.48;12.80;;;;;;;;;;5032843;28;20037;-69
2021/12/29 12:40:24;;;;;;;24.45;11.82;;;;;;;;;;5032462;28;20037;-68
2021/12/29 12:43:10;;;;;;;19.10;12.52;;;;;;;;;;5032327;28;20388;-70
2021/12/29 12:45:38;;;;;;;49.92;14.10;;;;;;;;;;5032790;28;20030;-68
2021/12/29 12:48:11;;;;;;;34.08;12.98;;;;;;;;;;5032622;28;20033;-70
2021/12/29 12:50:41;;;;;;;35.53;13.95;;;;;;;;;;5034451;28;20053;-70
2021/12/29 12:53:08;;;;;;;30.02;13.13;;;;;;;;;;5034825;28;20108;-70
2021/12/29 12:55:54;;;;;;;27.35;13.75;;;;;;;;;;5034865;28;20036;-70
2021/12/29 12:58:20;;;;;;;29.88;13.82;;;;;;;;;;5034682;28;20037;-71
2021/12/29 13:01:15;;;;;;;40.58;15.60;;;;;;;;;;5034798;28;20017;-70
2021/12/29 13:03:41;;;;;;;28.27;14.60;;;;;;;;;;5034537;28;20519;-70
2021/12/29 13:06:16;;;;;;;20.50;14.35;;;;;;;;;;5035146;28;20357;-70
2021/12/29 13:08:45;;;;;;;22.40;14.75;;;;;;;;;;5034102;28;20049;-70
2021/12/29 13:11:20;;;;;;;31.08;15.20;;;;;;;;;;5035059;28;20025;-71
2021/12/29 13:13:49;;;;;;;28.05;14.70;;;;;;;;;;5034496;28;20037;-71
2021/12/29 13:16:18;;;;;;;26.65;15.57;;;;;;;;;;5034722;28;20048;-71
2021/12/29 13:18:45;;;;;;;34.58;14.65;;;;;;;;;;5034749;28;20059;-73
2021/12/29 13:21:33;;;;;;;34.22;15.30;;;;;;;;;;5034533;28;20017;-71
2021/12/29 13:24:06;;;;;;;42.65;15.75;;;;;;;;;;5034765;28;20041;-72
2021/12/29 13:26:36;;;;;;;29.90;13.85;;;;;;;;;;5034397;28;20026;-70
2021/12/29 13:29:08;;;;;;;21.13;12.90;;;;;;;;;;5034325;28;20605;-75
2021/12/29 13:31:34;;;;;;;32.72;16.73;;;;;;;;;;5034354;28;20033;-72
2021/12/29 13:34:00;;;;;;;26.17;14.48;;;;;;;;;;5034037;28;20037;-71
2021/12/29 13:36:27;;;;;;;26.48;14.95;;;;;;;;;;5034304;28;20152;-71
2021/12/29 13:38:58;;;;;;;22.55;11.90;;;;;;;;;;5034218;28;20467;-76
2021/12/29 13:41:34;;;;;;;25.17;12.73;;;;;;;;;;5034130;28;20034;-74
2021/12/29 13:44:02;;;;;;;41.03;21.23;;;;;;;;;;5033898;28;20571;-74
2021/12/29 13:46:31;;;;;;;36.42;21.42;;;;;;;;;;5034155;28;20496;-75
2021/12/29 13:49:00;;;;;;;37.08;21.65;;;;;;;;;;5033980;28;20288;-73
2021/12/29 13:51:29;;;;;;;41.15;21.83;;;;;;;;;;5034129;28;20522;-74
2021/12/29 13:53:58;;;;;;;37.38;19.60;;;;;;;;;;5034244;28;20447;-75
2021/12/29 13:56:30;;;;;;;36.58;19.35;;;;;;;;;;5033684;28;20045;-73
2021/12/29 13:59:10;;;;;;;39.35;22.63;;;;;;;;;;5033915;28;20060;-73
2021/12/29 14:01:38;;;;;;;31.10;18.75;;;;;;;;;;5033900;28;20121;-74
2021/12/29 14:04:05;;;;;;;31.95;17.40;;;;;;;;;;5032730;28;20030;-74
2021/12/29 14:06:31;;;;;;;32.00;18.20;;;;;;;;;;5033799;28;20124;-76
2021/12/29 14:08:58;;;;;;;39.55;21.08;;;;;;;;;;5033818;28;20109;-76
2021/12/29 14:11:27;;;;;;;36.30;20.05;;;;;;;;;;5033579;28;20034;-76
2021/12/29 14:14:06;;;;;;;25.58;16.27;;;;;;;;;;5033743;28;20461;-75
2021/12/29 14:16:33;;;;;;;35.42;19.20;;;;;;;;;;5033551;28;20037;-75
2021/12/29 14:19:05;;;;;;;37.05;19.00;;;;;;;;;;5034079;28;20052;-75
2021/12/29 14:21:34;;;;;;;41.63;19.42;;;;;;;;;;5033135;28;20044;-76
2021/12/29 14:24:06;;;;;;;43.92;21.55;;;;;;;;;;5033479;28;20480;-73
2021/12/29 14:26:37;;;;;;;33.30;18.95;;;;;;;;;;5033570;28;20041;-75
2021/12/29 14:29:05;;;;;;;36.45;20.83;;;;;;;;;;5034657;28;20038;-75
2021/12/29 14:31:41;;;;;;;39.67;20.58;;;;;;;;;;5034828;28;20495;-75